Terminal Aerodrome Forecast
Issued by NWS

Home | Current Version | Previous Version | Graphics & Text | Print | Product List | Glossary On
Versions: 1 2 3 4 5 6 7 8 9 10 11 12 13 14 15 16 17 18 19
000
FTUS43 KGRB 182244 AAB
TAFAUW
TAF AMD
KAUW 182244Z 1823/1918 29007G14KT P6SM SCT030 BKN070
     FM190100 30004KT P6SM SCT040 BKN070
     FM191000 35004KT P6SM SCT120
     FM191500 36004KT P6SM SCT035=

USA.gov is the U.S. government's official web portal to all federal, state and local government web resources and services.